createdAt,value
2023-02-03T00:04:21.873Z,100998.06
2023-02-03T00:09:24.856Z,101009.67
2023-02-03T00:14:28.954Z,101004.85
2023-02-03T00:19:32.019Z,100997.91
2023-02-03T00:24:34.966Z,100986.65
2023-02-03T00:29:38.181Z,100988.71
2023-02-03T00:34:41.021Z,101002.83
2023-02-03T00:39:44.609Z,101002.58
2023-02-03T00:44:48.737Z,101005.42
2023-02-03T00:49:51.840Z,101008.00
2023-02-03T00:54:54.924Z,101008.87
2023-02-03T00:59:58.254Z,101014.73
2023-02-03T01:05:01.109Z,101019.77
2023-02-03T01:10:05.249Z,101020.80
2023-02-03T01:15:08.758Z,101022.53
2023-02-03T01:20:16.990Z,101026.92
2023-02-03T01:25:22.298Z,101030.75
2023-02-03T01:30:28.215Z,101027.86
2023-02-03T01:35:31.506Z,101016.48
2023-02-03T01:40:34.396Z,101022.40
2023-02-03T01:45:37.610Z,101024.70
2023-02-03T01:50:40.588Z,101018.85
2023-02-03T01:55:47.043Z,101016.27
2023-02-03T02:00:50.274Z,101005.46
2023-02-03T02:06:04.429Z,101008.77
2023-02-03T02:11:07.739Z,101011.13
2023-02-03T02:16:26.833Z,101014.14
2023-02-03T02:21:50.859Z,101010.20
2023-02-03T02:27:10.875Z,101007.39
2023-02-03T02:32:52.712Z,101002.96
2023-02-03T02:38:24.928Z,101003.11
2023-02-03T02:43:42.743Z,101002.83
2023-02-03T02:48:55.356Z,100993.13
2023-02-03T02:54:01.842Z,100988.30
2023-02-03T02:59:06.322Z,100993.49
2023-02-03T03:04:10.671Z,100989.64
2023-02-03T03:09:19.383Z,100994.48
2023-02-03T03:14:23.876Z,100996.30
2023-02-03T03:19:36.172Z,100991.18
2023-02-03T03:24:49.173Z,100988.20
2023-02-03T03:29:57.919Z,100989.55
2023-02-03T03:35:01.611Z,100992.17
2023-02-03T03:40:18.799Z,100987.99
2023-02-03T03:45:41.101Z,100987.11
2023-02-03T03:50:54.599Z,100976.88
2023-02-03T03:55:57.386Z,100974.92
2023-02-03T04:01:02.960Z,100980.05
2023-02-03T04:06:08.547Z,100982.08
2023-02-03T04:11:11.552Z,100975.56
2023-02-03T04:16:14.373Z,100977.08
2023-02-03T04:21:17.355Z,100976.65
2023-02-03T04:26:20.210Z,100975.89
2023-02-03T04:31:23.696Z,100974.83
2023-02-03T04:36:26.847Z,100982.15
2023-02-03T04:41:29.639Z,100978.85
2023-02-03T04:46:32.682Z,100981.53
2023-02-03T04:51:35.604Z,100980.20
2023-02-03T04:56:38.928Z,100973.61
2023-02-03T05:01:41.847Z,100966.79
2023-02-03T05:06:44.809Z,100964.95
2023-02-03T05:11:48.460Z,100957.20
2023-02-03T05:16:51.572Z,100952.89
2023-02-03T05:21:54.829Z,100952.20
2023-02-03T05:26:57.687Z,100950.08
2023-02-03T05:32:03.023Z,100950.04
2023-02-03T05:37:06.052Z,100952.98
2023-02-03T05:42:09.500Z,100951.52
2023-02-03T05:47:12.678Z,100942.45
2023-02-03T05:52:15.484Z,100942.35
2023-02-03T05:57:19.434Z,100940.80
2023-02-03T06:02:22.314Z,100938.66
2023-02-03T06:07:25.421Z,100939.07
2023-02-03T06:12:29.444Z,100928.76
2023-02-03T06:17:32.476Z,100926.59
2023-02-03T06:22:35.513Z,100926.20
2023-02-03T06:27:38.624Z,100922.67
2023-02-03T06:32:41.477Z,100916.87
2023-02-03T06:37:44.407Z,100911.86
2023-02-03T06:42:47.944Z,100899.03
2023-02-03T06:47:50.928Z,100885.77
2023-02-03T06:52:53.835Z,100882.06
2023-02-03T06:57:57.100Z,100871.73
2023-02-03T07:03:00.109Z,100865.65
2023-02-03T07:08:03.496Z,100864.14
2023-02-03T07:13:06.865Z,100850.38
2023-02-03T07:18:09.854Z,100843.55
2023-02-03T07:23:12.710Z,100837.65
2023-02-03T07:28:15.617Z,100828.64
2023-02-03T07:33:18.492Z,100826.73
2023-02-03T07:38:29.352Z,100821.91
2023-02-03T07:43:32.390Z,100813.61
2023-02-03T07:48:35.250Z,100799.36
2023-02-03T07:53:38.537Z,100787.81
2023-02-03T07:58:41.722Z,100778.73
2023-02-03T08:03:44.725Z,100770.30
2023-02-03T08:08:47.618Z,100764.51
2023-02-03T08:13:51.174Z,100749.20
2023-02-03T08:18:54.148Z,100741.34
2023-02-03T08:23:57.145Z,100738.73
2023-02-03T08:29:00.056Z,100733.27
2023-02-03T08:34:03.076Z,100726.20
2023-02-03T08:39:07.083Z,100718.31
2023-02-03T08:44:10.042Z,100712.99
2023-02-03T08:49:13.004Z,100705.83
2023-02-03T08:54:15.949Z,100691.99
2023-02-03T08:59:19.251Z,100688.45
2023-02-03T09:04:25.533Z,100677.93
2023-02-03T09:09:29.497Z,100671.15
2023-02-03T09:14:33.221Z,100657.13
2023-02-03T09:19:36.729Z,100641.10
2023-02-03T09:24:39.806Z,100637.45
2023-02-03T09:29:42.820Z,100630.18
2023-02-03T09:34:45.796Z,100626.52
2023-02-03T09:39:49.007Z,100611.63
2023-02-03T09:45:13.310Z,100606.58
2023-02-03T09:50:22.098Z,100591.46
2023-02-03T09:55:39.757Z,100576.72
2023-02-03T10:01:05.752Z,100563.55
2023-02-03T10:06:30.664Z,100541.36
2023-02-03T10:12:01.275Z,100532.58
2023-02-03T10:17:20.474Z,100516.02
2023-02-03T10:22:28.530Z,100506.55
2023-02-03T10:27:32.439Z,100493.89
2023-02-03T10:32:36.192Z,100482.45
2023-02-03T10:37:45.744Z,100472.25
2023-02-03T10:43:08.005Z,100456.86
2023-02-03T10:48:15.684Z,100442.97
2023-02-03T10:53:18.499Z,100425.27
2023-02-03T10:58:28.138Z,100403.12
2023-02-03T11:03:31.110Z,100386.80
2023-02-03T11:08:35.978Z,100363.25
2023-02-03T11:13:38.789Z,100343.00
2023-02-03T11:19:11.665Z,100326.21
2023-02-03T11:24:26.482Z,100302.05
2023-02-03T11:29:31.569Z,100291.38
2023-02-03T11:34:36.999Z,100273.45
2023-02-03T11:39:39.901Z,100254.82
2023-02-03T11:44:42.823Z,100232.89
2023-02-03T11:50:10.384Z,100214.64
2023-02-03T11:55:22.026Z,100196.19
2023-02-03T12:00:37.896Z,100182.72
2023-02-03T12:06:31.856Z,100178.11
2023-02-03T12:12:20.774Z,100164.37
2023-02-03T12:17:33.374Z,100149.44
2023-02-03T12:23:30.397Z,100138.90
2023-02-03T12:28:54.640Z,100125.73
2023-02-03T12:34:12.585Z,100114.30
2023-02-03T12:39:34.367Z,100104.39
2023-02-03T12:45:06.150Z,100091.40
2023-02-03T12:50:31.275Z,100078.45
2023-02-03T12:55:39.462Z,100061.95
2023-02-03T13:01:02.913Z,100046.11
2023-02-03T13:06:34.936Z,100022.67
2023-02-03T13:12:12.725Z,100000.70
2023-02-03T13:17:24.685Z,99978.74
2023-02-03T13:22:27.627Z,99957.92
2023-02-03T13:28:45.596Z,99941.77
2023-02-03T13:34:13.117Z,99920.38
2023-02-03T13:39:41.621Z,99902.81
2023-02-03T13:44:45.418Z,99886.09
2023-02-03T13:50:01.658Z,99871.38
2023-02-03T14:02:23.525Z,99851.66
2023-02-03T14:07:38.192Z,99842.48
2023-02-03T14:12:50.313Z,99833.06
2023-02-03T14:17:55.526Z,99821.92
2023-02-03T14:23:05.468Z,99808.98
2023-02-03T14:28:15.213Z,99794.86
2023-02-03T14:33:18.164Z,99787.28
2023-02-03T14:38:21.026Z,99780.85
2023-02-03T14:43:44.110Z,99770.98
2023-02-03T14:49:30.764Z,99757.89
2023-02-03T14:54:53.004Z,99749.23
2023-02-03T15:00:22.454Z,99741.55
2023-02-03T15:05:47.476Z,99730.57
2023-02-03T15:10:50.433Z,99723.32
2023-02-03T15:16:27.239Z,99715.80
2023-02-03T15:21:30.194Z,99708.11
2023-02-03T15:26:33.297Z,99700.00
2023-02-03T15:31:48.993Z,99693.73
2023-02-03T15:36:55.115Z,99683.77
2023-02-03T15:41:59.240Z,99678.63
2023-02-03T15:47:02.981Z,99674.02
2023-02-03T15:52:19.508Z,99662.06
2023-02-03T15:57:28.852Z,99658.23
2023-02-03T16:02:39.034Z,99647.52
2023-02-03T16:07:42.022Z,99641.73
2023-02-03T16:12:44.843Z,99629.82
2023-02-03T16:17:47.676Z,99623.24
2023-02-03T16:23:19.431Z,99616.21
2023-02-03T16:28:41.123Z,99604.63
2023-02-03T16:34:08.321Z,99598.20
2023-02-03T16:39:30.870Z,99593.39
2023-02-03T16:44:52.534Z,99592.80
2023-02-03T16:50:14.229Z,99583.39
2023-02-03T16:55:17.105Z,99575.82
2023-02-03T17:00:22.140Z,99571.94
2023-02-03T17:05:25.210Z,99567.52
2023-02-03T17:10:28.196Z,99569.61
2023-02-03T17:15:31.359Z,99569.45
2023-02-03T17:20:34.561Z,99565.45
2023-02-03T17:25:39.205Z,99567.07
2023-02-03T17:30:42.283Z,99564.52
2023-02-03T17:35:45.484Z,99569.52
2023-02-03T17:56:54.553Z,99574.86
2023-02-03T18:01:57.454Z,99584.16
2023-02-03T18:07:00.642Z,99588.70
2023-02-03T18:12:03.982Z,99589.20
2023-02-03T18:17:08.011Z,99589.73
2023-02-03T18:22:10.980Z,99592.29
2023-02-03T18:27:17.464Z,99599.10
2023-02-03T18:32:20.898Z,99605.81
2023-02-03T18:37:23.791Z,99609.02
2023-02-03T18:42:26.660Z,99616.94
2023-02-03T18:47:30.128Z,99624.25
2023-02-03T18:52:34.996Z,99625.77
2023-02-03T18:57:38.023Z,99632.39
2023-02-03T19:02:41.337Z,99633.96
2023-02-03T19:07:44.272Z,99637.46
2023-02-03T19:12:47.151Z,99635.73
2023-02-03T19:17:50.106Z,99635.20
2023-02-03T19:22:54.412Z,99638.50
2023-02-03T19:27:57.344Z,99637.64
2023-02-03T19:33:00.140Z,99638.83
2023-02-03T19:38:03.009Z,99652.95
2023-02-03T19:43:05.841Z,99648.19
2023-02-03T19:48:08.749Z,99635.23
2023-02-03T19:53:13.948Z,99635.25
2023-02-03T19:58:16.855Z,99642.72
2023-02-03T20:03:20.017Z,99641.58
2023-02-03T20:08:22.928Z,99656.69
2023-02-03T20:13:25.919Z,99677.84
2023-02-03T20:18:28.805Z,99669.35
2023-02-03T20:23:31.885Z,99673.24
2023-02-03T20:28:34.732Z,99675.46
2023-02-03T20:34:15.174Z,99676.51
2023-02-03T20:39:19.676Z,99681.73
2023-02-03T20:44:23.576Z,99692.24
2023-02-03T20:49:26.488Z,99711.23
2023-02-03T20:54:29.849Z,99706.36
2023-02-03T20:59:32.822Z,99705.45
2023-02-03T21:04:57.087Z,99706.69
2023-02-03T21:10:00.073Z,99706.41
2023-02-03T21:15:03.129Z,99723.52
2023-02-03T21:20:10.537Z,99726.88
2023-02-03T21:25:28.376Z,99729.16
2023-02-03T21:30:34.924Z,99747.12
2023-02-03T21:35:38.488Z,99763.46
2023-02-03T21:40:41.322Z,99760.86
2023-02-03T21:45:44.922Z,99768.11
2023-02-03T21:50:47.861Z,99774.29
2023-02-03T21:55:50.858Z,99777.43
2023-02-03T22:00:54.439Z,99781.81
2023-02-03T22:06:09.843Z,99803.73
2023-02-03T22:11:13.872Z,99813.29
2023-02-03T22:16:17.316Z,99814.47
2023-02-03T22:21:20.714Z,99823.98
2023-02-03T22:26:23.765Z,99830.86
2023-02-03T22:31:28.118Z,99832.04
2023-02-03T22:36:31.087Z,99844.84
2023-02-03T22:41:36.794Z,99854.44
2023-02-03T22:46:39.653Z,99844.35
2023-02-03T22:51:42.594Z,99851.04
2023-02-03T22:56:45.530Z,99865.95
2023-02-03T23:01:48.327Z,99872.64
2023-02-03T23:06:51.164Z,99877.50
2023-02-03T23:11:54.484Z,99878.45
2023-02-03T23:16:57.386Z,99883.02
2023-02-03T23:22:00.385Z,99893.98
2023-02-03T23:27:04.524Z,99905.33
2023-02-03T23:32:10.808Z,99918.71
2023-02-03T23:37:13.724Z,99940.45
2023-02-03T23:42:16.713Z,99960.04
2023-02-03T23:47:19.594Z,99969.08
2023-02-03T23:52:22.657Z,99981.02
2023-02-03T23:57:25.521Z,99991.86
